Time;durP1;ratioP1;P1;durP2;ratioP2;P2;SDS_P1;SDS_P2;PMS_P1;PMS_P2;Temp;Humidity;BMP_temperature;BMP_pressure;BME280_temperature;BME280_humidity;BME280_pressure;Samples;Min_cycle;Max_cycle;Signal;HPM_P1;HPM_P2
2022/04/18 00:00:45;;;;;;;7.67;6.95;;;;;;;5.28;100.00;100711.77;1780289;80;21033;-76
2022/04/18 00:03:13;;;;;;;9.58;8.30;;;;;;;5.27;100.00;100713.97;1812485;78;20982;-77
2022/04/18 00:05:42;;;;;;;8.75;7.92;;;;;;;5.28;100.00;100714.83;1812173;79;21210;-77
2022/04/18 00:08:10;;;;;;;8.30;7.47;;;;;;;5.27;100.00;100705.41;1812574;79;21508;-75
2022/04/18 00:10:39;;;;;;;8.43;7.62;;;;;;;5.25;100.00;100702.88;1793868;79;21489;-75
2022/04/18 00:13:06;;;;;;;8.68;7.87;;;;;;;5.24;100.00;100695.22;1811769;79;21085;-79
2022/04/18 00:15:34;;;;;;;9.13;8.18;;;;;;;5.21;100.00;100700.91;1812505;79;21159;-81
2022/04/18 00:18:03;;;;;;;8.70;7.80;;;;;;;5.19;100.00;100701.91;1794347;79;22192;-75
2022/04/18 00:20:32;;;;;;;9.10;7.97;;;;;;;5.19;100.00;100698.03;1812584;78;21998;-76
2022/04/18 00:23:00;;;;;;;8.45;7.62;;;;;;;5.15;100.00;100686.21;1774443;80;21480;-75
2022/04/18 00:25:28;;;;;;;8.13;7.33;;;;;;;5.14;100.00;100689.23;1780782;80;21060;-75
2022/04/18 00:27:57;;;;;;;9.08;8.18;;;;;;;5.13;100.00;100679.00;1812827;78;20974;-76
2022/04/18 00:30:24;;;;;;;8.45;7.55;;;;;;;5.12;100.00;100677.33;1812751;79;21080;-77
2022/04/18 00:32:53;;;;;;;8.40;7.50;;;;;;;5.12;100.00;100670.44;1793935;79;21082;-75
2022/04/18 00:35:22;;;;;;;8.35;7.53;;;;;;;5.12;100.00;100667.00;1812688;79;21511;-75
2022/04/18 00:37:49;;;;;;;9.93;8.65;;;;;;;5.09;100.00;100664.13;1812733;78;20998;-75
2022/04/18 00:40:17;;;;;;;11.60;8.40;;;;;;;5.07;100.00;100667.70;1794845;79;21062;-77
2022/04/18 00:42:46;;;;;;;8.30;7.50;;;;;;;5.04;100.00;100658.38;1812726;78;21041;-81
2022/04/18 00:45:14;;;;;;;8.95;8.05;;;;;;;5.02;100.00;100662.30;1799528;79;21044;-78
2022/04/18 00:47:43;;;;;;;8.28;7.47;;;;;;;5.00;100.00;100659.42;1794790;79;21134;-76
2022/04/18 00:50:10;;;;;;;9.13;8.13;;;;;;;4.98;100.00;100653.50;1812205;78;20995;-75
2022/04/18 00:52:39;;;;;;;10.05;8.03;;;;;;;4.94;100.00;100648.95;1817655;78;21479;-77
2022/04/18 00:55:08;;;;;;;8.48;7.47;;;;;;;4.92;100.00;100654.67;1817819;78;21038;-79
2022/04/18 00:57:39;;;;;;;8.13;7.33;;;;;;;4.91;100.00;100649.12;1778218;80;21039;-76
2022/04/18 01:00:08;;;;;;;8.95;7.58;;;;;;;4.89;100.00;100647.08;1791190;78;21135;-76
2022/04/18 01:02:36;;;;;;;8.35;7.28;;;;;;;4.87;100.00;100645.02;1784973;80;21037;-75
2022/04/18 01:05:06;;;;;;;7.83;6.97;;;;;;;4.85;100.00;100647.69;1784830;80;21077;-78
2022/04/18 01:07:36;;;;;;;7.80;7.00;;;;;;;4.85;100.00;100645.11;1785343;80;21571;-75
2022/04/18 01:10:06;;;;;;;8.58;7.45;;;;;;;4.85;100.00;100639.09;1785005;80;21073;-81
2022/04/18 01:12:34;;;;;;;8.90;7.50;;;;;;;4.84;100.00;100640.03;1785029;80;21088;-75
2022/04/18 01:15:09;;;;;;;7.55;6.72;;;;;;;4.82;100.00;100632.35;1785231;78;20989;-75
2022/04/18 01:17:56;;;;;;;8.45;7.30;;;;;;;4.81;100.00;100629.39;1785026;80;21007;-77
2022/04/18 01:20:29;;;;;;;7.50;6.67;;;;;;;4.80;100.00;100630.77;1736917;80;20986;-76
2022/04/18 01:23:07;;;;;;;8.53;7.15;;;;;;;4.79;100.00;100633.81;1718414;83;21056;-78
2022/04/18 01:31:21;;;;;;;9.20;8.30;;;;;;;4.81;100.00;100614.38;1776620;80;21024;-75
2022/04/18 01:33:48;;;;;;;8.75;7.92;;;;;;;4.81;100.00;100606.64;1777470;80;21039;-75
2022/04/18 01:36:15;;;;;;;10.03;8.63;;;;;;;4.80;100.00;100595.94;1776940;80;21019;-75
2022/04/18 01:38:44;;;;;;;9.80;8.80;;;;;;;4.81;100.00;100593.73;1776606;80;21624;-77
2022/04/18 01:41:12;;;;;;;9.40;8.30;;;;;;;4.81;100.00;100588.11;1782920;80;21670;-79
2022/04/18 01:43:39;;;;;;;9.93;8.70;;;;;;;4.80;100.00;100590.77;1785389;80;21084;-79
2022/04/18 01:46:08;;;;;;;8.83;7.92;;;;;;;4.78;100.00;100578.41;1779658;80;21018;-77
2022/04/18 01:48:35;;;;;;;10.03;8.30;;;;;;;4.77;100.00;100576.30;1775284;80;21575;-77
2022/04/18 01:51:04;;;;;;;9.15;7.87;;;;;;;4.76;100.00;100566.06;1751675;80;21350;-76
2022/04/18 01:53:31;;;;;;;10.58;8.48;;;;;;;4.74;100.00;100565.68;1784787;80;21068;-76
2022/04/18 01:56:00;;;;;;;10.23;8.13;;;;;;;4.73;100.00;100560.58;1785209;80;21022;-77
2022/04/18 01:58:30;;;;;;;;;;;;;;;4.70;100.00;100551.26;1783244;80;21022;-76
2022/04/18 02:00:59;;;;;;;9.48;8.28;;;;;;;4.71;100.00;100547.77;1784996;80;20172;-77
2022/04/18 02:03:28;;;;;;;10.13;9.03;;;;;;;4.71;100.00;100545.66;1784997;80;21554;-77
2022/04/18 02:05:57;;;;;;;9.20;8.20;;;;;;;4.69;100.00;100543.14;1784736;80;21045;-77
2022/04/18 02:08:24;;;;;;;9.50;8.55;;;;;;;4.71;100.00;100535.34;1784989;80;21005;-76
2022/04/18 02:10:52;;;;;;;9.58;8.58;;;;;;;4.69;100.00;100534.11;1785080;80;21068;-76
2022/04/18 02:13:21;;;;;;;9.53;8.53;;;;;;;4.70;100.00;100532.37;1769041;80;21488;-77
2022/04/18 02:15:49;;;;;;;9.70;8.70;;;;;;;4.70;100.00;100534.48;1784991;80;21541;-79
2022/04/18 02:18:16;;;;;;;10.68;9.58;;;;;;;4.71;100.00;100537.92;1784868;80;21061;-76
2022/04/18 02:20:43;;;;;;;10.95;9.33;;;;;;;4.73;100.00;100536.92;1785024;80;21089;-76
2022/04/18 02:23:10;;;;;;;12.10;9.88;;;;;;;4.76;100.00;100535.10;1784918;80;20974;-77
2022/04/18 02:25:38;;;;;;;11.12;9.93;;;;;;;4.76;100.00;100531.23;1784695;80;20990;-76
2022/04/18 02:28:07;;;;;;;11.38;10.15;;;;;;;4.76;100.00;100532.52;1769188;80;21764;-79
2022/04/18 02:30:39;;;;;;;10.30;9.18;;;;;;;4.76;100.00;100528.66;1780544;80;21039;-77
2022/04/18 02:33:06;;;;;;;10.55;9.45;;;;;;;4.74;100.00;100519.68;1784919;80;21048;-79
2022/04/18 02:35:33;;;;;;;10.32;9.23;;;;;;;4.73;100.00;100518.86;1785005;80;21563;-79
2022/04/18 02:38:00;;;;;;;10.03;8.93;;;;;;;4.72;100.00;100518.95;1784845;80;21041;-78
2022/04/18 02:40:31;;;;;;;10.10;8.60;;;;;;;4.70;100.00;100506.11;1780741;80;21061;-76
2022/04/18 02:42:59;;;;;;;10.13;8.23;;;;;;;4.68;100.00;100503.24;1784754;80;21026;-77
2022/04/18 02:45:27;;;;;;;8.85;7.95;;;;;;;4.65;100.00;100502.95;1784537;80;21052;-77
2022/04/18 02:48:00;;;;;;;9.25;8.35;;;;;;;4.63;100.00;100507.34;1762787;80;20986;-77
2022/04/18 02:50:27;;;;;;;9.53;7.80;;;;;;;4.62;100.00;100500.99;1776711;80;21080;-77
2022/04/18 02:52:56;;;;;;;7.62;6.58;;;;;;;4.60;100.00;100503.66;1745921;80;22318;-76
2022/04/18 02:55:26;;;;;;;6.62;5.75;;;;;;;4.59;100.00;100504.56;1766051;81;21003;-77
2022/04/18 02:57:54;;;;;;;7.78;6.58;;;;;;;4.56;100.00;100497.83;1769146;81;21054;-76
2022/04/18 03:00:22;;;;;;;6.80;6.10;;;;;;;4.55;100.00;100497.45;1747731;81;20999;-76
2022/04/18 03:02:51;;;;;;;7.47;6.40;;;;;;;4.54;100.00;100493.64;1769292;81;21101;-76
2022/04/18 03:05:20;;;;;;;6.42;5.80;;;;;;;4.53;100.00;100495.84;1747599;81;21023;-76
2022/04/18 03:07:50;;;;;;;6.10;5.03;;;;;;;4.53;100.00;100485.08;1747991;81;21003;-75
2022/04/18 03:11:02;;;;;;;5.37;4.67;;;;;;;4.53;100.00;100492.81;1769682;81;23112;-77
2022/04/18 03:12:51;;;;;;;5.03;4.58;;;;;;;4.51;100.00;100483.03;1773580;80;21053;-74
2022/04/18 03:15:18;;;;;;;5.87;5.20;;;;;;;4.51;100.00;100484.79;1769268;81;21073;-74
2022/04/18 03:17:45;;;;;;;5.22;4.72;;;;;;;4.49;100.00;100486.61;1769314;81;21547;-75
2022/04/18 03:20:14;;;;;;;5.83;4.45;;;;;;;4.48;100.00;100489.66;1769036;81;21369;-75
2022/04/18 03:22:41;;;;;;;6.67;4.60;;;;;;;4.46;100.00;100478.58;1769040;81;21022;-75
2022/04/18 03:25:11;;;;;;;5.17;4.67;;;;;;;4.47;100.00;100472.52;1769668;81;21027;-77
2022/04/18 03:27:40;;;;;;;5.62;4.17;;;;;;;4.45;100.00;100473.51;1769324;81;21708;-77
2022/04/18 03:30:09;;;;;;;7.60;4.85;;;;;;;4.46;100.00;100476.44;1777198;80;21152;-78
2022/04/18 03:32:38;;;;;;;5.15;4.33;;;;;;;4.46;100.00;100473.86;1765658;81;21149;-78
2022/04/18 03:35:07;;;;;;;5.15;4.65;;;;;;;4.47;100.00;100473.80;1769126;81;21034;-80
2022/04/18 03:40:21;;;;;;;5.12;4.22;;;;;;;4.49;100.00;100472.42;1745780;81;21535;-79
2022/04/18 03:42:49;;;;;;;4.72;4.28;;;;;;;4.51;100.00;100474.47;1744618;81;21531;-77
2022/04/18 03:45:16;;;;;;;5.08;4.58;;;;;;;4.52;100.00;100469.23;1769153;80;21102;-78
2022/04/18 03:47:46;;;;;;;4.33;3.92;;;;;;;4.54;100.00;100474.30;1744338;82;21504;-78
2022/04/18 03:50:14;;;;;;;4.58;4.12;;;;;;;4.54;100.00;100473.00;1769387;80;21066;-77
2022/04/18 03:52:45;;;;;;;4.55;4.00;;;;;;;4.53;100.00;100481.21;1743773;82;21091;-78
2022/04/18 03:55:25;;;;;;;4.90;4.17;;;;;;;4.51;100.00;100483.50;1738923;80;21184;-78
2022/04/18 03:57:54;;;;;;;4.22;3.83;;;;;;;4.51;100.00;100476.58;1713367;83;21103;-77
2022/04/18 04:00:21;;;;;;;5.50;4.30;;;;;;;4.53;100.00;100479.07;1739472;82;21046;-79
2022/04/18 04:02:50;;;;;;;5.30;4.80;;;;;;;4.53;100.00;100477.34;1739428;82;21576;-80
2022/04/18 04:05:19;;;;;;;4.78;4.28;;;;;;;4.52;100.00;100486.45;1737498;82;21006;-79
2022/04/18 04:07:49;;;;;;;4.40;4.00;;;;;;;4.52;100.00;100480.02;1737399;82;22379;-78
2022/04/18 04:10:19;;;;;;;5.08;4.47;;;;;;;4.52;100.00;100476.14;1736786;82;21100;-84
2022/04/18 04:12:49;;;;;;;4.60;4.20;;;;;;;4.53;100.00;100475.20;1739542;82;21041;-77
2022/04/18 04:15:24;;;;;;;4.72;4.33;;;;;;;4.55;100.00;100479.39;1736518;82;21065;-77
2022/04/18 04:17:54;;;;;;;5.25;4.20;;;;;;;4.54;100.00;100473.86;1736887;82;21042;-77
2022/04/18 04:20:23;;;;;;;4.35;3.95;;;;;;;4.54;100.00;100476.88;1739778;82;21555;-77
2022/04/18 04:22:54;;;;;;;4.67;4.20;;;;;;;4.53;100.00;100476.49;1739561;82;21007;-77
2022/04/18 04:25:30;;;;;;;4.53;4.12;;;;;;;4.52;100.00;100478.72;1736972;82;21139;-77
2022/04/18 04:27:59;;;;;;;4.78;4.28;;;;;;;4.54;100.00;100484.61;1740158;82;21035;-78
2022/04/18 04:30:27;;;;;;;4.58;4.05;;;;;;;4.52;100.00;100474.86;1740084;82;21574;-81
2022/04/18 04:32:56;;;;;;;5.20;4.28;;;;;;;4.51;100.00;100475.77;1737495;82;21885;-77
2022/04/18 04:35:24;;;;;;;4.15;3.75;;;;;;;4.49;100.00;100469.84;1739616;82;21010;-78
2022/04/18 04:37:56;;;;;;;4.25;3.85;;;;;;;4.49;100.00;100465.50;1737110;82;21461;-76
2022/04/18 04:40:27;;;;;;;4.67;4.28;;;;;;;4.47;100.00;100462.64;1727209;82;21069;-77
2022/04/18 04:42:54;;;;;;;3.83;3.42;;;;;;;4.45;100.00;100454.17;1739790;82;21089;-77
2022/04/18 04:45:23;;;;;;;4.08;3.67;;;;;;;4.46;100.00;100460.97;1739731;82;21665;-78
2022/04/18 04:47:58;;;;;;;3.90;3.55;;;;;;;4.41;100.00;100454.31;1730488;82;21532;-78
2022/04/18 04:50:26;;;;;;;3.80;3.50;;;;;;;4.42;100.00;100448.69;1741802;80;21027;-80
2022/04/18 04:52:55;;;;;;;4.03;3.62;;;;;;;4.44;100.00;100452.50;1764037;79;21073;-79
2022/04/18 04:55:24;;;;;;;4.85;3.42;;;;;;;4.45;100.00;100452.88;1758760;80;21033;-79
2022/04/18 04:57:51;;;;;;;3.80;3.42;;;;;;;4.46;100.00;100450.66;1776276;79;21822;-79
2022/04/18 05:00:24;;;;;;;4.80;3.83;;;;;;;4.46;100.00;100451.94;1795582;79;20978;-77
2022/04/18 05:02:56;;;;;;;5.00;3.30;;;;;;;4.45;100.00;100436.94;1796216;79;20994;-80
2022/04/18 05:05:24;;;;;;;3.60;3.27;;;;;;;4.45;100.00;100447.25;1799160;78;21314;-78
2022/04/18 05:07:51;;;;;;;3.45;3.15;;;;;;;4.45;100.00;100434.83;1787231;78;21030;-76
2022/04/18 05:10:21;;;;;;;4.62;3.10;;;;;;;4.41;100.00;100431.11;1749024;82;21586;-76
2022/04/18 05:12:49;;;;;;;3.77;3.02;;;;;;;4.40;100.00;100429.45;1748886;81;21093;-75
2022/04/18 05:15:19;;;;;;;3.83;3.52;;;;;;;4.39;100.00;100425.20;1749157;82;21064;-76
2022/04/18 05:18:05;;;;;;;3.90;3.50;;;;;;;4.39;100.00;100418.75;1767506;79;21019;-76
2022/04/18 05:20:37;;;;;;;3.47;3.17;;;;;;;4.39;100.00;100414.06;1760353;78;37363;-76
2022/04/18 05:23:06;;;;;;;3.55;3.25;;;;;;;4.38;100.00;100411.92;1782166;79;21883;-78
2022/04/18 05:25:34;;;;;;;3.33;3.02;;;;;;;4.38;100.00;100404.19;1784661;80;21264;-79
2022/04/18 05:28:03;;;;;;;3.70;3.40;;;;;;;4.39;100.00;100401.17;1785204;80;21007;-75
2022/04/18 05:30:33;;;;;;;3.95;3.52;;;;;;;4.39;100.00;100403.28;1781980;80;21644;-75
2022/04/18 05:33:00;;;;;;;3.55;3.22;;;;;;;4.39;100.00;100405.86;1785039;80;21101;-78
2022/04/18 05:35:27;;;;;;;4.10;3.70;;;;;;;4.39;100.00;100397.30;1784901;80;21860;-78
2022/04/18 05:37:55;;;;;;;3.58;3.17;;;;;;;4.40;100.00;100395.92;1785072;80;21064;-79
2022/04/18 05:40:33;;;;;;;3.60;3.30;;;;;;;4.40;100.00;100394.64;1781432;80;21059;-75
2022/04/18 05:43:02;;;;;;;4.35;3.90;;;;;;;4.42;100.00;100381.22;1785618;80;21465;-74
2022/04/18 05:45:30;;;;;;;4.55;4.10;;;;;;;4.44;100.00;100379.02;1780805;80;21026;-78
2022/04/18 05:48:00;;;;;;;3.92;3.47;;;;;;;4.44;100.00;100379.02;1770492;80;21353;-76
2022/04/18 05:50:29;;;;;;;4.08;3.67;;;;;;;4.46;100.00;100373.30;1784992;80;20990;-76
2022/04/18 05:53:12;;;;;;;3.77;3.37;;;;;;;4.48;100.00;100365.03;1788133;80;21013;-75
2022/04/18 05:55:56;;;;;;;4.20;3.80;;;;;;;4.52;100.00;100374.28;1665402;84;21080;-75
2022/04/18 05:58:27;;;;;;;4.45;4.05;;;;;;;4.54;100.00;100365.98;1691103;81;21730;-78
2022/04/18 06:00:55;;;;;;;4.15;3.83;;;;;;;4.59;100.00;100366.59;1779108;80;21536;-75
2022/04/18 06:03:23;;;;;;;4.25;3.30;;;;;;;4.62;100.00;100370.27;1779317;80;21136;-75
2022/04/18 06:05:51;;;;;;;4.97;4.22;;;;;;;4.65;100.00;100365.40;1759209;80;21094;-76
2022/04/18 06:08:20;;;;;;;4.53;3.95;;;;;;;4.65;100.00;100358.51;1749201;80;21520;-75
2022/04/18 06:11:06;;;;;;;5.70;3.65;;;;;;;4.68;100.00;100369.96;1773373;79;21022;-76
2022/04/18 06:13:44;;;;;;;4.35;3.92;;;;;;;4.70;100.00;100362.95;1743468;81;21026;-75
2022/04/18 06:16:12;;;;;;;4.20;3.80;;;;;;;4.75;100.00;100360.13;1771185;80;21037;-76
2022/04/18 06:18:41;;;;;;;4.30;3.90;;;;;;;4.77;100.00;100365.22;1759737;81;21057;-75
2022/04/18 06:21:11;;;;;;;4.80;4.35;;;;;;;4.79;100.00;100359.05;1746826;80;21486;-74
2022/04/18 06:23:38;;;;;;;4.20;3.80;;;;;;;4.83;100.00;100352.80;1784985;80;21077;-75
2022/04/18 06:26:16;;;;;;;5.12;4.22;;;;;;;4.88;100.00;100353.83;1779827;80;21577;-76
2022/04/18 06:28:44;;;;;;;6.15;4.50;;;;;;;4.93;100.00;100353.10;1751524;80;21058;-76
2022/04/18 06:31:12;;;;;;;4.42;3.92;;;;;;;4.98;100.00;100356.28;1784371;80;21289;-76
2022/04/18 06:33:45;;;;;;;4.62;3.92;;;;;;;5.01;100.00;100349.64;1780048;80;20994;-75
2022/04/18 06:36:13;;;;;;;4.40;4.00;;;;;;;5.02;100.00;100353.06;1784865;80;21132;-75
2022/04/18 06:38:42;;;;;;;4.33;3.90;;;;;;;5.04;100.00;100357.70;1779440;80;21639;-77
2022/04/18 06:41:11;;;;;;;3.98;3.62;;;;;;;5.09;100.00;100357.44;1779677;80;21041;-77
2022/04/18 06:43:39;;;;;;;4.35;3.95;;;;;;;5.13;100.00;100363.60;1784629;80;21757;-78
2022/04/18 06:46:08;;;;;;;3.65;3.35;;;;;;;5.17;100.00;100366.84;1736483;80;21117;-79
2022/04/18 06:48:36;;;;;;;3.98;3.58;;;;;;;5.21;100.00;100368.34;1774132;80;21051;-80
2022/04/18 06:51:21;;;;;;;4.45;3.70;;;;;;;5.20;100.00;100363.66;1761649;80;21795;-77
2022/04/18 06:54:08;;;;;;;3.80;3.40;;;;;;;5.20;100.00;100364.09;1687748;84;21875;-78
2022/04/18 06:57:00;;;;;;;3.27;2.98;;;;;;;5.21;100.00;100356.73;1687231;84;21646;-77
2022/04/18 06:59:30;;;;;;;4.08;3.67;;;;;;;5.24;100.00;100351.41;1715072;80;21042;-76
2022/04/18 07:01:59;;;;;;;3.62;3.27;;;;;;;5.28;100.00;100346.89;1748756;80;21017;-78
2022/04/18 07:04:29;;;;;;;3.70;3.40;;;;;;;5.30;100.00;100346.33;1746469;80;21522;-78
2022/04/18 07:06:56;;;;;;;3.72;3.42;;;;;;;5.33;100.00;100346.16;1758797;80;21572;-78
2022/04/18 07:09:24;;;;;;;3.40;3.08;;;;;;;5.35;100.00;100341.27;1768687;80;21065;-80
2022/04/18 07:11:53;;;;;;;4.45;4.05;;;;;;;5.36;100.00;100330.03;1777982;79;21116;-77
2022/04/18 07:14:25;;;;;;;4.05;3.50;;;;;;;5.41;100.00;100331.06;1768492;80;21080;-75
2022/04/18 07:16:54;;;;;;;3.47;3.17;;;;;;;5.47;100.00;100323.42;1774975;79;21561;-77
2022/04/18 07:19:23;;;;;;;6.62;3.72;;;;;;;5.54;100.00;100323.42;1783599;78;22064;-78
2022/04/18 07:21:51;;;;;;;3.77;3.47;;;;;;;5.58;100.00;100317.63;1776643;79;21145;-80
2022/04/18 07:24:19;;;;;;;3.62;3.10;;;;;;;5.65;100.00;100324.90;1776512;79;21083;-80
2022/04/18 07:26:53;;;;;;;3.35;3.12;;;;;;;5.72;100.00;100320.69;1749603;79;21137;-83
2022/04/18 07:29:23;;;;;;;3.47;3.17;;;;;;;5.74;100.00;100330.00;1770188;79;21077;-78
2022/04/18 07:31:50;;;;;;;3.33;3.02;;;;;;;5.73;100.00;100324.94;1777175;80;21132;-78
2022/04/18 07:34:18;;;;;;;3.72;3.35;;;;;;;5.73;100.00;100323.64;1752170;81;21157;-78
2022/04/18 07:36:49;;;;;;;3.42;3.12;;;;;;;5.76;100.00;100323.00;1761385;80;21599;-76
2022/04/18 07:39:17;;;;;;;4.10;3.58;;;;;;;5.81;100.00;100315.79;1741996;80;21076;-82
2022/04/18 07:41:47;;;;;;;3.60;3.30;;;;;;;5.85;100.00;100322.89;1754027;80;21424;-79
2022/04/18 07:44:16;;;;;;;4.00;3.55;;;;;;;5.90;100.00;100323.91;1778400;80;21071;-84
2022/04/18 07:46:44;;;;;;;3.77;3.42;;;;;;;5.95;100.00;100324.02;1748245;80;21010;-83
2022/04/18 07:49:17;;;;;;;3.80;3.50;;;;;;;6.02;100.00;100318.50;1730583;80;21547;-82
2022/04/18 07:51:46;;;;;;;3.92;3.62;;;;;;;6.08;100.00;100313.80;1745774;81;21055;-79
2022/04/18 07:54:17;;;;;;;3.95;3.65;;;;;;;6.13;100.00;100311.75;1740244;80;21525;-77
2022/04/18 07:56:44;;;;;;;4.58;3.62;;;;;;;6.17;100.00;100314.97;1774304;80;21108;-78
2022/04/18 07:59:12;;;;;;;4.53;4.12;;;;;;;6.16;100.00;100309.43;1781121;79;21046;-77
2022/04/18 08:01:41;;;;;;;3.87;3.55;;;;;;;6.14;100.00;100311.27;1773719;80;21018;-81
2022/04/18 08:04:10;;;;;;;4.08;3.67;;;;;;;6.13;100.00;100308.31;1769401;80;21021;-77
2022/04/18 08:06:38;;;;;;;4.55;3.65;;;;;;;6.10;100.00;100299.47;1768392;80;21693;-77
2022/04/18 08:09:09;;;;;;;4.05;3.65;;;;;;;6.08;100.00;100303.45;1769900;80;21037;-77
2022/04/18 08:11:37;;;;;;;4.25;3.85;;;;;;;6.07;100.00;100290.60;1747379;80;21057;-79
2022/04/18 08:14:05;;;;;;;4.47;4.08;;;;;;;6.11;100.00;100290.80;1745343;82;21041;-76
2022/04/18 08:16:47;;;;;;;4.95;3.98;;;;;;;6.12;100.00;100286.00;1736923;82;21100;-79
2022/04/18 08:19:21;;;;;;;4.95;4.45;;;;;;;6.11;100.00;100277.39;1714000;83;21541;-75
2022/04/18 08:21:52;;;;;;;4.75;4.25;;;;;;;6.13;100.00;100277.29;1747562;80;21070;-79
2022/04/18 08:24:20;;;;;;;5.28;4.78;;;;;;;6.13;100.00;100272.12;1750472;80;21028;-77
2022/04/18 08:27:05;;;;;;;4.58;4.10;;;;;;;6.17;100.00;100263.27;1770607;80;21073;-77
2022/04/18 08:29:40;;;;;;;5.25;4.75;;;;;;;6.20;100.00;100260.50;1777097;79;21069;-77
2022/04/18 08:32:14;;;;;;;6.03;4.60;;;;;;;6.25;100.00;100254.56;1778891;79;21980;-78
2022/04/18 08:34:44;;;;;;;7.15;4.72;;;;;;;6.29;100.00;100250.03;1765596;80;21492;-76
2022/04/18 08:37:15;;;;;;;5.08;4.58;;;;;;;6.32;100.00;100244.67;1770459;80;21073;-76
2022/04/18 08:39:49;;;;;;;5.50;4.90;;;;;;;6.35;100.00;100243.64;1741727;82;21098;-83
2022/04/18 08:42:22;;;;;;;5.53;5.03;;;;;;;6.41;100.00;100245.36;1773959;80;22312;-76
2022/04/18 08:44:54;;;;;;;5.80;5.30;;;;;;;6.45;100.00;100240.37;1759291;80;21037;-77
2022/04/18 08:52:57;;;;;;;6.33;5.40;;;;;;;6.57;100.00;100233.58;1745011;80;21034;-78
2022/04/18 08:55:32;;;;;;;5.72;5.10;;;;;;;6.62;100.00;100230.22;1739408;81;21054;-78
2022/04/18 08:58:05;;;;;;;5.60;5.10;;;;;;;6.71;100.00;100229.27;1779566;80;21217;-79
2022/04/18 09:00:34;;;;;;;4.75;4.35;;;;;;;6.76;100.00;100228.04;1760164;80;21036;-81
2022/04/18 09:03:04;;;;;;;5.25;4.75;;;;;;;6.81;100.00;100229.52;1744669;81;21022;-79
2022/04/18 09:05:39;;;;;;;5.73;5.13;;;;;;;6.87;100.00;100230.40;1770271;80;21038;-78
2022/04/18 09:08:10;;;;;;;7.22;5.28;;;;;;;6.94;100.00;100232.46;1779160;80;21555;-80
2022/04/18 09:10:41;;;;;;;5.45;4.97;;;;;;;7.01;100.00;100230.79;1780259;79;21099;-77
2022/04/18 09:13:24;;;;;;;5.05;4.65;;;;;;;7.02;100.00;100225.50;1765058;80;21092;-81
2022/04/18 09:15:55;;;;;;;4.55;4.15;;;;;;;7.03;100.00;100215.95;1750237;80;21032;-77
2022/04/18 09:18:24;;;;;;;5.55;4.33;;;;;;;7.02;100.00;100217.73;1749775;80;21040;-79
2022/04/18 09:20:56;;;;;;;4.70;4.20;;;;;;;7.05;100.00;100217.98;1749940;80;21052;-79
2022/04/18 09:23:32;;;;;;;4.62;4.22;;;;;;;7.07;100.00;100218.72;1752706;81;25555;-77
2022/04/18 09:26:08;;;;;;;5.58;4.03;;;;;;;7.07;100.00;100220.83;1748306;81;21063;-80
2022/04/18 09:28:41;;;;;;;4.60;4.20;;;;;;;7.10;100.00;100219.80;1717411;82;21657;-77
2022/04/18 09:31:12;;;;;;;4.58;4.17;;;;;;;7.10;100.00;100215.46;1735342;82;21125;-77
2022/04/18 09:33:48;;;;;;;4.50;4.00;;;;;;;7.13;100.00;100209.24;1737428;82;21085;-76
2022/04/18 09:36:18;;;;;;;4.50;4.10;;;;;;;7.15;100.00;100212.56;1748919;82;21747;-80
2022/04/18 09:38:53;;;;;;;4.75;4.35;;;;;;;7.13;100.00;100214.91;1724353;81;21063;-77
2022/04/18 09:41:32;;;;;;;4.92;4.53;;;;;;;7.13;100.00;100209.24;1735991;81;21516;-77
2022/04/18 09:44:10;;;;;;;4.97;4.58;;;;;;;7.14;100.00;100213.49;1722624;82;21022;-77
2022/04/18 09:46:42;;;;;;;5.40;4.90;;;;;;;7.15;100.00;100213.86;1706940;81;21152;-78
2022/04/18 09:49:12;;;;;;;5.45;4.92;;;;;;;7.16;100.00;100206.91;1716863;82;21098;-80
2022/04/18 09:51:43;;;;;;;4.92;4.42;;;;;;;7.14;100.00;100203.14;1712974;82;21025;-77
2022/04/18 09:54:20;;;;;;;5.10;4.60;;;;;;;7.13;100.00;100200.18;1713950;83;21013;-77
2022/04/18 09:56:50;;;;;;;5.28;4.87;;;;;;;7.13;100.00;100206.66;1746246;80;21093;-76
2022/04/18 09:59:20;;;;;;;5.90;4.95;;;;;;;7.13;100.00;100196.77;1742790;82;21599;-77
2022/04/18 10:01:51;;;;;;;5.30;4.80;;;;;;;7.15;100.00;100202.66;1748752;80;21177;-79
2022/04/18 10:04:19;;;;;;;6.53;5.33;;;;;;;7.18;100.00;100198.58;1753779;80;21029;-77
2022/04/18 10:06:50;;;;;;;5.85;5.25;;;;;;;7.22;100.00;100202.60;1750259;80;21040;-77
2022/04/18 10:09:17;;;;;;;6.10;5.50;;;;;;;7.25;100.00;100207.11;1739781;80;21082;-80
2022/04/18 10:11:47;;;;;;;6.30;5.78;;;;;;;7.29;100.00;100205.62;1745129;80;22315;-77
2022/04/18 10:14:16;;;;;;;15.95;14.25;;;;;;;7.29;100.00;100201.73;1748858;80;21231;-78
2022/04/18 10:16:49;;;;;;;8.95;8.05;;;;;;;7.32;100.00;100206.71;1707428;82;21504;-80
2022/04/18 10:19:34;;;;;;;8.33;7.53;;;;;;;7.34;100.00;100197.05;1712939;82;21105;-78
2022/04/18 10:22:22;;;;;;;6.92;6.33;;;;;;;7.36;100.00;100199.08;1704108;81;21063;-78
2022/04/18 10:25:11;;;;;;;6.62;5.95;;;;;;;7.39;100.00;100205.36;1715488;82;21515;-80
2022/04/18 10:28:01;;;;;;;7.20;6.50;;;;;;;7.41;100.00;100207.39;1698791;83;21235;-77
2022/04/18 10:30:41;;;;;;;10.93;9.83;;;;;;;7.40;100.00;100203.14;1721651;81;21125;-77
2022/04/18 10:33:12;;;;;;;9.13;7.22;;;;;;;7.39;100.00;100197.11;1720304;81;21042;-77
2022/04/18 10:35:55;;;;;;;7.40;6.62;;;;;;;7.41;100.00;100188.77;1720709;82;21114;-82
2022/04/18 10:38:26;;;;;;;7.22;6.60;;;;;;;7.45;100.00;100189.87;1708912;83;21114;-77
2022/04/18 10:44:02;;;;;;;7.10;6.50;;;;;;;7.51;100.00;100195.44;1704661;83;21083;-77
2022/04/18 10:46:31;;;;;;;7.10;6.47;;;;;;;7.54;100.00;100194.39;1723859;81;21576;-80
2022/04/18 10:49:01;;;;;;;7.55;6.15;;;;;;;7.55;100.00;100196.89;1729123;81;21082;-81
2022/04/18 10:51:38;;;;;;;7.90;7.20;;;;;;;7.56;100.00;100195.12;1728606;82;21039;-78
2022/04/18 10:54:21;;;;;;;8.25;7.45;;;;;;;7.54;100.00;100195.23;1728849;83;22339;-77
2022/04/18 10:57:00;;;;;;;8.50;7.70;;;;;;;7.54;100.00;100189.20;1728806;82;20992;-78
2022/04/18 10:59:37;;;;;;;7.80;7.10;;;;;;;7.53;100.00;100186.28;1728885;82;21084;-82
2022/04/18 11:02:09;;;;;;;8.10;7.28;;;;;;;7.53;100.00;100183.69;1726514;81;21105;-77
2022/04/18 11:04:46;;;;;;;9.05;8.20;;;;;;;7.54;100.00;100182.28;1712604;83;21010;-77
2022/04/18 11:07:14;;;;;;;8.65;7.85;;;;;;;7.55;100.00;100172.28;1729330;83;21256;-77
2022/04/18 11:09:52;;;;;;;8.43;7.62;;;;;;;7.55;100.00;100170.98;1722152;81;21525;-78
2022/04/18 11:12:20;;;;;;;8.70;7.87;;;;;;;7.56;100.00;100163.58;1728592;82;21007;-78
2022/04/18 11:14:55;;;;;;;10.05;8.60;;;;;;;7.56;100.00;100159.69;1729273;81;21075;-76
2022/04/18 11:17:35;;;;;;;9.48;8.58;;;;;;;7.56;100.00;100160.14;1729492;83;21025;-77
2022/04/18 11:20:31;;;;;;;9.25;8.35;;;;;;;7.57;100.00;100150.14;1720716;81;22004;-77
2022/04/18 11:23:27;;;;;;;9.75;8.50;;;;;;;7.57;100.00;100154.84;1722280;82;21126;-81
2022/04/18 11:26:05;;;;;;;9.65;7.92;;;;;;;7.56;100.00;100144.14;1717225;82;21454;-76
2022/04/18 11:28:41;;;;;;;9.40;8.50;;;;;;;7.55;100.00;100130.83;1769887;80;21113;-77
2022/04/18 11:31:17;;;;;;;8.75;7.95;;;;;;;7.58;100.00;100126.70;1741963;80;21538;-76
2022/04/18 11:33:46;;;;;;;8.40;7.08;;;;;;;7.60;100.00;100121.89;1752645;81;21851;-79
2022/04/18 11:36:14;;;;;;;8.88;8.08;;;;;;;7.61;100.00;100104.11;1751914;80;21001;-81
2022/04/18 11:38:44;;;;;;;8.85;7.95;;;;;;;7.64;100.00;100099.53;1723498;81;21135;-76
2022/04/18 11:41:13;;;;;;;10.35;9.35;;;;;;;7.69;100.00;100102.62;1747365;81;21105;-76
2022/04/18 11:43:41;;;;;;;9.45;8.55;;;;;;;7.70;100.00;100105.58;1766568;80;21109;-81
2022/04/18 11:46:09;;;;;;;10.13;9.23;;;;;;;7.75;100.00;100102.66;1763953;80;21136;-78
2022/04/18 11:48:38;;;;;;;10.00;9.10;;;;;;;7.78;100.00;100102.45;1764899;80;21048;-77
2022/04/18 11:51:07;;;;;;;10.20;9.30;;;;;;;7.81;100.00;100107.39;1751809;80;20992;-76
2022/04/18 11:53:35;;;;;;;9.75;8.85;;;;;;;7.79;100.00;100105.41;1752321;80;21581;-76
2022/04/18 11:56:06;;;;;;;9.73;8.73;;;;;;;7.72;100.00;100110.19;1749272;81;21031;-77
2022/04/18 11:58:37;;;;;;;9.23;8.33;;;;;;;7.68;100.00;100105.33;1712248;83;21077;-76